Alderson, West Virginia
Current Conditions -  °F | °C
As of 9:15 AM on Thursday 27 Nov 2014 (Local Time) from KLWB Reporting Station
Scattered Clouds Scattered Clouds  
Wind Chill: 34°   Ceiling: Unl
Heat Index: 34°   Visibility: 10mi
Dew Point: 33°   Wind: 3mph
Humidity: 96%   Direction: 280°W
Pressure: 30.01"   Gusts: NA
Location:  37.73°N, 80.64°W
Report Text: KLWB 271415Z AUTO 28003KT 10SM SCT022 SCT045 SCT060 01/01 A3001 RMK AO2 T00100005
Loading
Personal Weather Stations






























Interactive Weather Map New forecast layout! Learn more

10-Day Weather Forecast

Advertisements
Track Severe Weather on mobile